sensor_id;sensor_type;location;lat;lon;timestamp;pressure;altitude;pressure_sealevel;temperature;humidity
71974;BME280;59840;52.122;5.404;2022-09-23T00:01:14;101952.03;;;7.49;88.13
71974;BME280;59840;52.122;5.404;2022-09-23T00:03:42;101940.34;;;7.51;87.65
71974;BME280;59840;52.122;5.404;2022-09-23T00:06:13;101953.66;;;7.50;88.03
71974;BME280;59840;52.122;5.404;2022-09-23T00:08:39;101940.91;;;7.47;87.93
71974;BME280;59840;52.122;5.404;2022-09-23T00:11:17;101947.41;;;7.51;88.15
71974;BME280;59840;52.122;5.404;2022-09-23T00:13:47;101944.97;;;7.49;87.70
71974;BME280;59840;52.122;5.404;2022-09-23T00:16:18;101940.50;;;7.43;87.95
71974;BME280;59840;52.122;5.404;2022-09-23T00:18:45;101934.63;;;7.41;87.65
71974;BME280;59840;52.122;5.404;2022-09-23T00:21:13;101937.84;;;7.36;88.01
71974;BME280;59840;52.122;5.404;2022-09-23T00:23:41;101937.06;;;7.43;88.08
71974;BME280;59840;52.122;5.404;2022-09-23T00:26:10;101933.00;;;7.40;87.96
71974;BME280;59840;52.122;5.404;2022-09-23T00:28:37;101924.50;;;7.38;88.09
71974;BME280;59840;52.122;5.404;2022-09-23T00:31:05;101927.34;;;7.36;88.15
71974;BME280;59840;52.122;5.404;2022-09-23T00:33:32;101925.53;;;7.37;88.39
71974;BME280;59840;52.122;5.404;2022-09-23T00:36:07;101926.13;;;7.39;88.15
71974;BME280;59840;52.122;5.404;2022-09-23T00:38:37;101926.13;;;7.39;88.49
71974;BME280;59840;52.122;5.404;2022-09-23T00:41:04;101921.47;;;7.34;88.19
71974;BME280;59840;52.122;5.404;2022-09-23T00:46:22;101918.81;;;7.28;88.20
71974;BME280;59840;52.122;5.404;2022-09-23T00:48:56;101920.66;;;7.27;88.26
71974;BME280;59840;52.122;5.404;2022-09-23T00:51:30;101909.34;;;7.27;88.20
71974;BME280;59840;52.122;5.404;2022-09-23T00:54:00;101910.53;;;7.24;88.58
71974;BME280;59840;52.122;5.404;2022-09-23T00:56:29;101907.69;;;7.19;88.05
71974;BME280;59840;52.122;5.404;2022-09-23T00:58:57;101908.31;;;7.21;88.17
71974;BME280;59840;52.122;5.404;2022-09-23T01:01:25;101908.31;;;7.21;88.24
71974;BME280;59840;52.122;5.404;2022-09-23T01:03:52;101903.41;;;7.12;88.20
71974;BME280;59840;52.122;5.404;2022-09-23T01:06:20;101899.75;;;7.06;88.11
71974;BME280;59840;52.122;5.404;2022-09-23T01:08:46;101908.63;;;7.05;88.42
71974;BME280;59840;52.122;5.404;2022-09-23T01:14:36;101900.53;;;7.00;88.34
71974;BME280;59840;52.122;5.404;2022-09-23T01:17:15;101908.78;;;6.97;88.77
71974;BME280;59840;52.122;5.404;2022-09-23T01:22:27;101905.53;;;6.88;88.36
71974;BME280;59840;52.122;5.404;2022-09-23T01:30:47;101901.91;;;6.89;88.48
71974;BME280;59840;52.122;5.404;2022-09-23T01:38:59;101894.38;;;6.80;88.43
71974;BME280;59840;52.122;5.404;2022-09-23T01:44:08;101885.69;;;6.79;88.87
71974;BME280;59840;52.122;5.404;2022-09-23T01:46:42;101883.06;;;6.79;88.74
71974;BME280;59840;52.122;5.404;2022-09-23T01:49:21;101882.63;;;6.76;88.75
71974;BME280;59840;52.122;5.404;2022-09-23T01:51:59;101885.03;;;6.70;88.69
71974;BME280;59840;52.122;5.404;2022-09-23T01:54:51;101883.84;;;6.73;88.75
71974;BME280;59840;52.122;5.404;2022-09-23T01:57:32;101883.03;;;6.72;88.68
71974;BME280;59840;52.122;5.404;2022-09-23T02:00:09;101881.41;;;6.71;89.04
71974;BME280;59840;52.122;5.404;2022-09-23T02:02:41;101883.03;;;6.72;89.20
71974;BME280;59840;52.122;5.404;2022-09-23T02:07:55;101883.84;;;6.73;89.39
71974;BME280;59840;52.122;5.404;2022-09-23T02:10:26;101872.91;;;6.69;89.08
71974;BME280;59840;52.122;5.404;2022-09-23T02:13:01;101881.97;;;6.67;89.09
71974;BME280;59840;52.122;5.404;2022-09-23T02:15:38;101878.53;;;6.66;88.91
71974;BME280;59840;52.122;5.404;2022-09-23T02:18:12;101878.53;;;6.66;89.08
71974;BME280;59840;52.122;5.404;2022-09-23T02:20:41;101873.91;;;6.68;88.78
71974;BME280;59840;52.122;5.404;2022-09-23T02:23:14;101866.84;;;6.69;88.44
71974;BME280;59840;52.122;5.404;2022-09-23T02:36:25;101843.41;;;6.54;88.94
71974;BME280;59840;52.122;5.404;2022-09-23T02:38:59;101840.16;;;6.52;88.77
71974;BME280;59840;52.122;5.404;2022-09-23T02:44:11;101828.38;;;6.42;88.71
71974;BME280;59840;52.122;5.404;2022-09-23T02:46:38;101833.19;;;6.38;89.28
71974;BME280;59840;52.122;5.404;2022-09-23T02:49:10;101823.47;;;6.32;88.95
71974;BME280;59840;52.122;5.404;2022-09-23T02:51:38;101832.72;;;6.28;88.81
71974;BME280;59840;52.122;5.404;2022-09-23T02:54:08;101824.84;;;6.28;88.66
71974;BME280;59840;52.122;5.404;2022-09-23T02:56:36;101827.47;;;6.28;89.00
71974;BME280;59840;52.122;5.404;2022-09-23T02:59:02;101822.22;;;6.28;89.02
71974;BME280;59840;52.122;5.404;2022-09-23T03:04:31;101823.03;;;6.22;89.21
71974;BME280;59840;52.122;5.404;2022-09-23T03:07:05;101815.34;;;6.20;89.61
71974;BME280;59840;52.122;5.404;2022-09-23T03:09:54;101825.41;;;6.17;89.58
71974;BME280;59840;52.122;5.404;2022-09-23T03:15:32;101815.91;;;6.16;89.67
71974;BME280;59840;52.122;5.404;2022-09-23T03:18:14;101813.50;;;6.14;89.92
71974;BME280;59840;52.122;5.404;2022-09-23T03:20:47;101804.63;;;6.15;89.46
71974;BME280;59840;52.122;5.404;2022-09-23T03:23:23;101804.88;;;6.20;88.97
71974;BME280;59840;52.122;5.404;2022-09-23T03:25:55;101805.69;;;6.21;89.24
71974;BME280;59840;52.122;5.404;2022-09-23T03:28:24;101810.91;;;6.21;89.53
71974;BME280;59840;52.122;5.404;2022-09-23T03:30:53;101816.53;;;6.18;89.98
71974;BME280;59840;52.122;5.404;2022-09-23T03:33:23;101813.09;;;6.17;89.68
71974;BME280;59840;52.122;5.404;2022-09-23T03:36:02;101805.44;;;6.16;89.87
71974;BME280;59840;52.122;5.404;2022-09-23T03:38:51;101814.09;;;6.16;89.88
71974;BME280;59840;52.122;5.404;2022-09-23T03:41:31;101811.28;;;6.18;90.07
71974;BME280;59840;52.122;5.404;2022-09-23T03:44:00;101798.38;;;6.16;90.40
71974;BME280;59840;52.122;5.404;2022-09-23T03:46:27;101802.63;;;6.17;90.35
71974;BME280;59840;52.122;5.404;2022-09-23T03:48:58;101797.19;;;6.19;89.79
71974;BME280;59840;52.122;5.404;2022-09-23T03:51:29;101791.97;;;6.19;89.96
71974;BME280;59840;52.122;5.404;2022-09-23T03:53:56;101793.56;;;6.20;90.36
71974;BME280;59840;52.122;5.404;2022-09-23T03:56:22;101790.75;;;6.21;90.09
71974;BME280;59840;52.122;5.404;2022-09-23T03:58:49;101783.09;;;6.20;89.93
71974;BME280;59840;52.122;5.404;2022-09-23T04:01:16;101784.72;;;6.21;89.92
71974;BME280;59840;52.122;5.404;2022-09-23T04:03:42;101786.34;;;6.22;89.98
71974;BME280;59840;52.122;5.404;2022-09-23T04:06:09;101786.34;;;6.22;89.65
71974;BME280;59840;52.122;5.404;2022-09-23T04:08:35;101781.69;;;6.24;89.96
71974;BME280;59840;52.122;5.404;2022-09-23T04:11:02;101778.47;;;6.22;90.05
71974;BME280;59840;52.122;5.404;2022-09-23T04:13:30;101780.28;;;6.21;89.50
71974;BME280;59840;52.122;5.404;2022-09-23T04:15:57;101778.66;;;6.20;89.68
71974;BME280;59840;52.122;5.404;2022-09-23T04:18:23;101778.84;;;6.19;89.56
71974;BME280;59840;52.122;5.404;2022-09-23T04:20:50;101774.63;;;6.18;89.68
71974;BME280;59840;52.122;5.404;2022-09-23T04:23:16;101784.47;;;6.16;89.75
71974;BME280;59840;52.122;5.404;2022-09-23T04:25:47;101783.84;;;6.14;90.23
71974;BME280;59840;52.122;5.404;2022-09-23T04:28:14;101784.66;;;6.14;90.45
71974;BME280;59840;52.122;5.404;2022-09-23T04:30:41;101781.84;;;6.16;90.20
71974;BME280;59840;52.122;5.404;2022-09-23T04:33:09;101779.84;;;6.18;90.21
71974;BME280;59840;52.122;5.404;2022-09-23T04:35:37;101781.91;;;6.22;90.01
71974;BME280;59840;52.122;5.404;2022-09-23T04:38:05;101770.19;;;6.25;89.98
71974;BME280;59840;52.122;5.404;2022-09-23T04:40:32;101760.13;;;6.28;89.80
71974;BME280;59840;52.122;5.404;2022-09-23T04:42:59;101763.38;;;6.30;89.80
71974;BME280;59840;52.122;5.404;2022-09-23T04:45:26;101764.81;;;6.33;89.84
71974;BME280;59840;52.122;5.404;2022-09-23T04:47:53;101763.81;;;6.34;90.18
71974;BME280;59840;52.122;5.404;2022-09-23T04:50:19;101766.66;;;6.39;90.10
71974;BME280;59840;52.122;5.404;2022-09-23T04:52:46;101768.72;;;6.44;90.27
71974;BME280;59840;52.122;5.404;2022-09-23T04:55:12;101775.38;;;6.46;89.82
71974;BME280;59840;52.122;5.404;2022-09-23T04:57:39;101772.97;;;6.51;89.67
71974;BME280;59840;52.122;5.404;2022-09-23T05:00:06;101776.03;;;6.55;89.83
71974;BME280;59840;52.122;5.404;2022-09-23T05:02:33;101772.59;;;6.54;89.77
71974;BME280;59840;52.122;5.404;2022-09-23T05:05:00;101766.97;;;6.57;90.46
71974;BME280;59840;52.122;5.404;2022-09-23T05:07:27;101769.38;;;6.59;90.39
71974;BME280;59840;52.122;5.404;2022-09-23T05:09:53;101763.13;;;6.60;90.97
71974;BME280;59840;52.122;5.404;2022-09-23T05:12:20;101767.16;;;6.62;90.66
71974;BME280;59840;52.122;5.404;2022-09-23T05:14:47;101762.34;;;6.66;90.44
71974;BME280;59840;52.122;5.404;2022-09-23T05:17:13;101760.56;;;6.73;90.45
71974;BME280;59840;52.122;5.404;2022-09-23T05:19:40;101761.97;;;6.76;90.44
71974;BME280;59840;52.122;5.404;2022-09-23T05:22:07;101766.84;;;6.79;90.61
71974;BME280;59840;52.122;5.404;2022-09-23T05:24:34;101760.41;;;6.81;91.11
71974;BME280;59840;52.122;5.404;2022-09-23T05:27:00;101762.81;;;6.83;90.88
71974;BME280;59840;52.122;5.404;2022-09-23T05:29:27;101764.88;;;6.87;91.19
71974;BME280;59840;52.122;5.404;2022-09-23T05:31:54;101756.78;;;6.89;90.84
71974;BME280;59840;52.122;5.404;2022-09-23T05:34:20;101766.91;;;6.92;91.44
71974;BME280;59840;52.122;5.404;2022-09-23T05:36:48;101770.09;;;6.94;91.21
71974;BME280;59840;52.122;5.404;2022-09-23T05:39:15;101769.91;;;6.95;91.69
71974;BME280;59840;52.122;5.404;2022-09-23T05:41:41;101770.13;;;7.00;91.17
71974;BME280;59840;52.122;5.404;2022-09-23T05:44:08;101767.94;;;7.04;90.88
71974;BME280;59840;52.122;5.404;2022-09-23T05:46:35;101776.22;;;7.07;90.85
71974;BME280;59840;52.122;5.404;2022-09-23T05:49:02;101768.38;;;7.14;91.39
71974;BME280;59840;52.122;5.404;2022-09-23T05:51:32;101768.78;;;7.18;91.09
71974;BME280;59840;52.122;5.404;2022-09-23T05:53:59;101765.38;;;7.24;91.20
71974;BME280;59840;52.122;5.404;2022-09-23T05:56:29;101767.78;;;7.32;90.32
71974;BME280;59840;52.122;5.404;2022-09-23T05:58:57;101770.41;;;7.38;90.31
71974;BME280;59840;52.122;5.404;2022-09-23T06:01:26;101769.63;;;7.45;90.30
71974;BME280;59840;52.122;5.404;2022-09-23T06:03:55;101769.84;;;7.50;90.39
71974;BME280;59840;52.122;5.404;2022-09-23T06:09:00;101778.94;;;7.60;90.85
71974;BME280;59840;52.122;5.404;2022-09-23T06:11:31;101772.25;;;7.64;90.26
71974;BME280;59840;52.122;5.404;2022-09-23T06:13:58;101770.63;;;7.70;90.67
71974;BME280;59840;52.122;5.404;2022-09-23T06:16:30;101766.59;;;7.74;90.75
71974;BME280;59840;52.122;5.404;2022-09-23T06:18:57;101770.25;;;7.80;90.09
71974;BME280;59840;52.122;5.404;2022-09-23T06:21:32;101771.84;;;7.87;90.27
71974;BME280;59840;52.122;5.404;2022-09-23T06:23:59;101774.50;;;7.94;90.33
71974;BME280;59840;52.122;5.404;2022-09-23T06:26:26;101764.16;;;7.99;89.67
71974;BME280;59840;52.122;5.404;2022-09-23T06:29:00;101764.34;;;8.04;90.62
71974;BME280;59840;52.122;5.404;2022-09-23T06:31:29;101765.34;;;8.10;89.85
71974;BME280;59840;52.122;5.404;2022-09-23T06:34:09;101759.69;;;8.19;90.41
71974;BME280;59840;52.122;5.404;2022-09-23T06:36:42;101763.09;;;8.26;90.01
71974;BME280;59840;52.122;5.404;2022-09-23T06:39:13;101759.25;;;8.35;89.85
71974;BME280;59840;52.122;5.404;2022-09-23T06:41:49;101763.06;;;8.46;89.79
71974;BME280;59840;52.122;5.404;2022-09-23T06:44:20;101761.41;;;8.58;88.68
71974;BME280;59840;52.122;5.404;2022-09-23T06:46:47;101757.91;;;8.71;89.00
71974;BME280;59840;52.122;5.404;2022-09-23T06:49:14;101766.56;;;8.85;87.94
71974;BME280;59840;52.122;5.404;2022-09-23T06:51:44;101755.78;;;8.99;88.50
71974;BME280;59840;52.122;5.404;2022-09-23T06:54:11;101758.91;;;9.15;88.71
71974;BME280;59840;52.122;5.404;2022-09-23T06:56:39;101766.53;;;9.29;88.32
71974;BME280;59840;52.122;5.404;2022-09-23T06:59:09;101762.75;;;9.44;89.39
71974;BME280;59840;52.122;5.404;2022-09-23T07:01:36;101760.03;;;9.57;88.73
71974;BME280;59840;52.122;5.404;2022-09-23T07:04:04;101756.13;;;9.66;89.42
71974;BME280;59840;52.122;5.404;2022-09-23T07:06:33;101757.16;;;9.83;89.88
71974;BME280;59840;52.122;5.404;2022-09-23T07:08:59;101753.41;;;9.97;88.95
71974;BME280;59840;52.122;5.404;2022-09-23T07:11:27;101752.81;;;10.14;89.38
71974;BME280;59840;52.122;5.404;2022-09-23T07:13:54;101760.19;;;10.30;88.28
71974;BME280;59840;52.122;5.404;2022-09-23T07:16:21;101751.09;;;10.44;88.75
71974;BME280;59840;52.122;5.404;2022-09-23T07:18:48;101748.31;;;10.57;88.79
71974;BME280;59840;52.122;5.404;2022-09-23T07:21:17;101755.03;;;10.71;88.35
71974;BME280;59840;52.122;5.404;2022-09-23T07:23:46;101756.47;;;10.86;88.64
71974;BME280;59840;52.122;5.404;2022-09-23T07:26:14;101749.41;;;10.98;87.69
71974;BME280;59840;52.122;5.404;2022-09-23T07:28:42;101747.59;;;11.10;87.42
71974;BME280;59840;52.122;5.404;2022-09-23T07:31:11;101745.56;;;11.24;87.50
71974;BME280;59840;52.122;5.404;2022-09-23T07:33:40;101747.00;;;11.38;87.09
71974;BME280;59840;52.122;5.404;2022-09-23T07:36:15;101749.63;;;11.50;85.92
71974;BME280;59840;52.122;5.404;2022-09-23T07:38:45;101757.59;;;11.61;86.47
71974;BME280;59840;52.122;5.404;2022-09-23T07:41:16;101762.25;;;11.78;85.07
71974;BME280;59840;52.122;5.404;2022-09-23T07:43:44;101757.16;;;11.88;84.59
71974;BME280;59840;52.122;5.404;2022-09-23T07:46:14;101763.50;;;11.98;84.47
71974;BME280;59840;52.122;5.404;2022-09-23T07:48:43;101764.31;;;12.11;83.75
71974;BME280;59840;52.122;5.404;2022-09-23T07:51:21;101760.13;;;12.26;83.51
71974;BME280;59840;52.122;5.404;2022-09-23T07:53:50;101759.66;;;12.41;82.82
71974;BME280;59840;52.122;5.404;2022-09-23T07:56:20;101758.69;;;12.59;82.02
71974;BME280;59840;52.122;5.404;2022-09-23T07:58:48;101758.97;;;12.74;82.79
71974;BME280;59840;52.122;5.404;2022-09-23T08:01:27;101763.03;;;12.93;82.04
71974;BME280;59840;52.122;5.404;2022-09-23T08:03:59;101762.53;;;13.08;81.58
71974;BME280;59840;52.122;5.404;2022-09-23T08:06:26;101768.59;;;13.20;80.50
71974;BME280;59840;52.122;5.404;2022-09-23T08:08:56;101764.13;;;13.37;80.85
71974;BME280;59840;52.122;5.404;2022-09-23T08:11:24;101761.97;;;13.51;79.83
71974;BME280;59840;52.122;5.404;2022-09-23T08:13:54;101764.75;;;13.61;79.27
71974;BME280;59840;52.122;5.404;2022-09-23T08:16:22;101763.41;;;13.75;79.59
71974;BME280;59840;52.122;5.404;2022-09-23T08:18:51;101763.59;;;13.91;78.28
71974;BME280;59840;52.122;5.404;2022-09-23T08:21:19;101754.44;;;13.98;76.40
71974;BME280;59840;52.122;5.404;2022-09-23T08:23:48;101753.59;;;14.15;78.20
71974;BME280;59840;52.122;5.404;2022-09-23T08:26:15;101756.44;;;14.30;76.51
71974;BME280;59840;52.122;5.404;2022-09-23T08:28:48;101756.03;;;14.38;76.25
71974;BME280;59840;52.122;5.404;2022-09-23T08:31:19;101759.31;;;14.45;75.03
71974;BME280;59840;52.122;5.404;2022-09-23T08:34:07;101752.22;;;14.51;75.19
71974;BME280;59840;52.122;5.404;2022-09-23T08:36:35;101750.41;;;14.56;75.48
71974;BME280;59840;52.122;5.404;2022-09-23T08:39:03;101754.06;;;14.72;75.37
71974;BME280;59840;52.122;5.404;2022-09-23T08:42:04;101750.75;;;14.87;74.60
71974;BME280;59840;52.122;5.404;2022-09-23T08:44:55;101759.44;;;15.04;74.07
71974;BME280;59840;52.122;5.404;2022-09-23T08:47:29;101751.09;;;15.22;72.89
71974;BME280;59840;52.122;5.404;2022-09-23T08:50:18;101746.94;;;15.36;71.85
71974;BME280;59840;52.122;5.404;2022-09-23T08:55:31;101751.94;;;15.60;72.02
71974;BME280;59840;52.122;5.404;2022-09-23T09:01:09;101753.44;;;15.83;72.36
71974;BME280;59840;52.122;5.404;2022-09-23T09:03:58;101748.44;;;15.91;70.07
71974;BME280;59840;52.122;5.404;2022-09-23T09:06:40;101751.09;;;15.91;70.97
71974;BME280;59840;52.122;5.404;2022-09-23T09:09:31;101751.91;;;15.97;69.62
71974;BME280;59840;52.122;5.404;2022-09-23T09:15:04;101751.19;;;16.06;69.54
71974;BME280;59840;52.122;5.404;2022-09-23T09:18:05;101738.94;;;16.11;70.42
71974;BME280;59840;52.122;5.404;2022-09-23T09:25:45;101738.50;;;16.29;68.60
71974;BME280;59840;52.122;5.404;2022-09-23T09:28:37;101736.94;;;16.38;69.85
71974;BME280;59840;52.122;5.404;2022-09-23T09:31:30;101741.19;;;16.39;68.02
71974;BME280;59840;52.122;5.404;2022-09-23T09:34:26;101736.16;;;16.42;68.12
71974;BME280;59840;52.122;5.404;2022-09-23T09:37:17;101733.53;;;16.53;68.10
71974;BME280;59840;52.122;5.404;2022-09-23T09:39:46;101738.63;;;16.64;67.55
71974;BME280;59840;52.122;5.404;2022-09-23T09:42:18;101730.69;;;16.74;66.52
71974;BME280;59840;52.122;5.404;2022-09-23T09:45:00;101726.97;;;16.81;67.88
71974;BME280;59840;52.122;5.404;2022-09-23T09:50:09;101732.56;;;16.99;67.10
71974;BME280;59840;52.122;5.404;2022-09-23T09:52:39;101732.59;;;17.20;66.51
71974;BME280;59840;52.122;5.404;2022-09-23T09:57:44;101727.53;;;17.43;65.41
71974;BME280;59840;52.122;5.404;2022-09-23T10:02:53;101715.81;;;17.65;63.06
71974;BME280;59840;52.122;5.404;2022-09-23T10:08:21;101720.06;;;17.51;63.14
71974;BME280;59840;52.122;5.404;2022-09-23T10:11:11;101724.59;;;17.50;63.41
71974;BME280;59840;52.122;5.404;2022-09-23T10:14:02;101718.16;;;17.71;64.63
71974;BME280;59840;52.122;5.404;2022-09-23T10:16:33;101715.75;;;17.85;62.44
71974;BME280;59840;52.122;5.404;2022-09-23T10:19:23;101703.66;;;18.03;62.73
71974;BME280;59840;52.122;5.404;2022-09-23T10:21:56;101700.44;;;18.06;63.05
71974;BME280;59840;52.122;5.404;2022-09-23T10:24:33;101697.47;;;18.18;61.65
71974;BME280;59840;52.122;5.404;2022-09-23T10:27:10;101696.09;;;18.30;60.64
71974;BME280;59840;52.122;5.404;2022-09-23T10:29:49;101697.94;;;18.30;59.55
71974;BME280;59840;52.122;5.404;2022-09-23T10:32:24;101695.44;;;18.49;60.26
71974;BME280;59840;52.122;5.404;2022-09-23T10:37:37;101692.44;;;18.65;58.39
71974;BME280;59840;52.122;5.404;2022-09-23T10:40:37;101689.25;;;18.58;59.68
71974;BME280;59840;52.122;5.404;2022-09-23T10:43:41;101695.66;;;18.62;59.34
71974;BME280;59840;52.122;5.404;2022-09-23T10:46:36;101689.81;;;18.50;60.47
71974;BME280;59840;52.122;5.404;2022-09-23T10:55:25;101697.94;;;18.35;59.32
71974;BME280;59840;52.122;5.404;2022-09-23T11:05:43;101699.97;;;18.53;60.50
71974;BME280;59840;52.122;5.404;2022-09-23T11:16:09;101692.25;;;18.47;59.96
71974;BME280;59840;52.122;5.404;2022-09-23T11:19:01;101693.53;;;18.54;60.52
71974;BME280;59840;52.122;5.404;2022-09-23T11:27:00;101682.81;;;18.64;61.23
71974;BME280;59840;52.122;5.404;2022-09-23T11:29:42;101689.53;;;18.62;60.29
71974;BME280;59840;52.122;5.404;2022-09-23T11:32:51;101681.22;;;18.63;61.57
71974;BME280;59840;52.122;5.404;2022-09-23T11:35:33;101685.50;;;18.64;60.88
71974;BME280;59840;52.122;5.404;2022-09-23T11:40:37;101679.47;;;18.83;59.88
71974;BME280;59840;52.122;5.404;2022-09-23T11:43:24;101676.72;;;18.93;59.84
71974;BME280;59840;52.122;5.404;2022-09-23T11:46:48;101674.81;;;18.98;59.25
71974;BME280;59840;52.122;5.404;2022-09-23T11:49:02;101675.50;;;19.09;58.75
71974;BME280;59840;52.122;5.404;2022-09-23T11:57:06;101665.03;;;19.41;59.14
71974;BME280;59840;52.122;5.404;2022-09-23T11:59:49;101661.16;;;19.58;57.92
71974;BME280;59840;52.122;5.404;2022-09-23T12:02:23;101666.38;;;19.73;58.72
71974;BME280;59840;52.122;5.404;2022-09-23T12:05:15;101663.78;;;19.87;58.58
71974;BME280;59840;52.122;5.404;2022-09-23T12:07:50;101660.75;;;19.93;57.63
71974;BME280;59840;52.122;5.404;2022-09-23T12:13:23;101651.00;;;20.02;56.18
71974;BME280;59840;52.122;5.404;2022-09-23T12:22:03;101646.56;;;19.93;57.95
71974;BME280;59840;52.122;5.404;2022-09-23T12:24:43;101645.31;;;19.85;56.44
71974;BME280;59840;52.122;5.404;2022-09-23T12:27:17;101649.41;;;19.78;56.21
71974;BME280;59840;52.122;5.404;2022-09-23T12:29:54;101640.16;;;19.70;56.86
71974;BME280;59840;52.122;5.404;2022-09-23T12:32:22;101638.03;;;19.67;56.58
71974;BME280;59840;52.122;5.404;2022-09-23T12:34:51;101636.44;;;19.66;55.64
71974;BME280;59840;52.122;5.404;2022-09-23T12:37:41;101625.00;;;19.60;56.94
71974;BME280;59840;52.122;5.404;2022-09-23T12:42:48;101631.03;;;19.42;57.50
71974;BME280;59840;52.122;5.404;2022-09-23T12:56:01;101624.56;;;19.48;55.82
71974;BME280;59840;52.122;5.404;2022-09-23T13:03:47;101628.81;;;19.54;54.65
71974;BME280;59840;52.122;5.404;2022-09-23T13:06:54;101623.84;;;19.66;56.15
71974;BME280;59840;52.122;5.404;2022-09-23T13:09:25;101622.72;;;19.72;55.29
71974;BME280;59840;52.122;5.404;2022-09-23T13:11:56;101611.56;;;19.65;55.87
71974;BME280;59840;52.122;5.404;2022-09-23T13:14:26;101613.44;;;19.65;56.16
71974;BME280;59840;52.122;5.404;2022-09-23T13:16:54;101608.59;;;19.67;55.32
71974;BME280;59840;52.122;5.404;2022-09-23T13:27:03;101601.69;;;19.61;55.60
71974;BME280;59840;52.122;5.404;2022-09-23T13:29:38;101606.16;;;19.41;55.12
71974;BME280;59840;52.122;5.404;2022-09-23T13:32:12;101604.97;;;19.29;55.89
71974;BME280;59840;52.122;5.404;2022-09-23T13:34:41;101601.84;;;19.22;56.15
71974;BME280;59840;52.122;5.404;2022-09-23T13:37:18;101599.94;;;19.22;55.86
71974;BME280;59840;52.122;5.404;2022-09-23T13:39:48;101599.72;;;19.19;55.95
71974;BME280;59840;52.122;5.404;2022-09-23T13:42:26;101598.69;;;19.15;57.40
71974;BME280;59840;52.122;5.404;2022-09-23T13:44:55;101589.63;;;19.11;56.46
71974;BME280;59840;52.122;5.404;2022-09-23T13:47:24;101592.53;;;19.14;57.04
71974;BME280;59840;52.122;5.404;2022-09-23T13:49:53;101595.16;;;19.19;56.72
71974;BME280;59840;52.122;5.404;2022-09-23T13:52:27;101591.81;;;19.32;56.77
71974;BME280;59840;52.122;5.404;2022-09-23T13:54:56;101590.31;;;19.45;56.05
71974;BME280;59840;52.122;5.404;2022-09-23T13:57:31;101583.81;;;19.56;56.71
71974;BME280;59840;52.122;5.404;2022-09-23T14:00:20;101589.91;;;19.62;56.23
71974;BME280;59840;52.122;5.404;2022-09-23T14:02:47;101596.22;;;19.71;56.83
71974;BME280;59840;52.122;5.404;2022-09-23T14:05:22;101579.47;;;19.60;55.87
71974;BME280;59840;52.122;5.404;2022-09-23T14:07:53;101585.97;;;19.54;56.26
71974;BME280;59840;52.122;5.404;2022-09-23T14:10:22;101580.91;;;19.53;56.06
71974;BME280;59840;52.122;5.404;2022-09-23T14:12:51;101570.72;;;19.55;55.56
71974;BME280;59840;52.122;5.404;2022-09-23T14:15:19;101571.50;;;19.55;54.60
71974;BME280;59840;52.122;5.404;2022-09-23T14:18:01;101563.34;;;19.41;55.68
71974;BME280;59840;52.122;5.404;2022-09-23T14:20:28;101569.72;;;19.46;55.91
71974;BME280;59840;52.122;5.404;2022-09-23T14:23:04;101563.34;;;19.41;55.60
71974;BME280;59840;52.122;5.404;2022-09-23T14:25:31;101553.28;;;19.33;56.29
71974;BME280;59840;52.122;5.404;2022-09-23T14:27:58;101564.41;;;19.40;57.12
71974;BME280;59840;52.122;5.404;2022-09-23T14:30:26;101560.09;;;19.45;57.59
71974;BME280;59840;52.122;5.404;2022-09-23T14:32:52;101552.56;;;19.47;56.09
71974;BME280;59840;52.122;5.404;2022-09-23T14:35:23;101554.50;;;19.41;56.53
71974;BME280;59840;52.122;5.404;2022-09-23T14:37:54;101553.72;;;19.40;56.84
71974;BME280;59840;52.122;5.404;2022-09-23T14:40:56;101554.38;;;19.32;57.20
71974;BME280;59840;52.122;5.404;2022-09-23T14:43:47;101551.50;;;19.24;58.39
71974;BME280;59840;52.122;5.404;2022-09-23T14:46:19;101544.84;;;19.21;58.16
71974;BME280;59840;52.122;5.404;2022-09-23T14:48:52;101546.78;;;19.16;58.91
71974;BME280;59840;52.122;5.404;2022-09-23T14:51:20;101551.94;;;19.07;59.45
71974;BME280;59840;52.122;5.404;2022-09-23T14:53:48;101546.16;;;19.00;60.10
71974;BME280;59840;52.122;5.404;2022-09-23T14:56:20;101553.19;;;18.91;61.63
71974;BME280;59840;52.122;5.404;2022-09-23T14:58:50;101546.38;;;18.74;62.62
71974;BME280;59840;52.122;5.404;2022-09-23T15:04:01;101542.78;;;18.55;61.68
71974;BME280;59840;52.122;5.404;2022-09-23T15:06:36;101544.47;;;18.46;62.53
71974;BME280;59840;52.122;5.404;2022-09-23T15:09:04;101534.66;;;18.36;62.91
71974;BME280;59840;52.122;5.404;2022-09-23T15:11:31;101542.47;;;18.28;62.68
71974;BME280;59840;52.122;5.404;2022-09-23T15:14:00;101539.31;;;18.21;63.79
71974;BME280;59840;52.122;5.404;2022-09-23T15:16:48;101526.03;;;18.11;63.99
71974;BME280;59840;52.122;5.404;2022-09-23T15:19:17;101530.66;;;18.00;64.19
71974;BME280;59840;52.122;5.404;2022-09-23T15:21:45;101534.41;;;17.94;63.66
71974;BME280;59840;52.122;5.404;2022-09-23T15:24:40;101526.16;;;17.90;65.15
71974;BME280;59840;52.122;5.404;2022-09-23T15:29:51;101528.88;;;17.80;65.28
71974;BME280;59840;52.122;5.404;2022-09-23T15:32:18;101516.34;;;17.75;65.43
71974;BME280;59840;52.122;5.404;2022-09-23T15:34:47;101520.38;;;17.73;66.22
71974;BME280;59840;52.122;5.404;2022-09-23T15:37:14;101523.84;;;17.68;66.65
71974;BME280;59840;52.122;5.404;2022-09-23T15:39:40;101523.88;;;17.63;66.46
71974;BME280;59840;52.122;5.404;2022-09-23T15:42:07;101523.91;;;17.58;67.43
71974;BME280;59840;52.122;5.404;2022-09-23T15:44:35;101523.91;;;17.53;67.01
71974;BME280;59840;52.122;5.404;2022-09-23T15:47:03;101523.13;;;17.48;67.53
71974;BME280;59840;52.122;5.404;2022-09-23T15:49:34;101522.63;;;17.46;67.92
71974;BME280;59840;52.122;5.404;2022-09-23T15:52:03;101523.69;;;17.39;68.84
71974;BME280;59840;52.122;5.404;2022-09-23T15:54:30;101523.72;;;17.34;69.42